Time;durP1;ratioP1;P1;durP2;ratioP2;P2;SDS_P1;SDS_P2;PMS_P1;PMS_P2;Temp;Humidity;BMP_temperature;BMP_pressure;BME280_temperature;BME280_humidity;BME280_pressure;Samples;Min_cycle;Max_cycle;Signal;HPM_P1;HPM_P2
2021/07/03 00:00:44;;;;;;;;;;;;;;;22.50;59.70;99574.50;2077264;28;19913;-60
2021/07/03 00:01:44;;;;;;;;;;;;;;;22.51;59.72;99576.19;2078306;28;19909;-60
2021/07/03 00:02:45;;;;;;;;;;;;;;;22.50;59.77;99577.25;2077993;28;20634;-61
2021/07/03 00:03:45;;;;;;;;;;;;;;;22.51;59.72;99581.69;2079567;28;19912;-60
2021/07/03 00:04:45;;;;;;;;;;;;;;;22.51;59.85;99578.94;2076651;28;20004;-60
2021/07/03 00:05:46;;;;;;;;;;;;;;;22.51;59.89;99573.44;2079073;28;19917;-60
2021/07/03 00:06:46;;;;;;;;;;;;;;;22.50;59.87;99571.75;2077391;28;19908;-60
2021/07/03 00:07:47;;;;;;;;;;;;;;;22.51;59.66;99569.84;2077097;28;19978;-60
2021/07/03 00:08:47;;;;;;;;;;;;;;;22.51;59.56;99562.44;2081566;28;20432;-60
2021/07/03 00:09:47;;;;;;;;;;;;;;;22.51;59.81;99567.94;2073390;28;20336;-60
2021/07/03 00:10:48;;;;;;;;;;;;;;;22.50;59.82;99560.75;2076477;28;20005;-60
2021/07/03 00:11:48;;;;;;;;;;;;;;;22.51;59.70;99567.09;2075281;28;19967;-60
2021/07/03 00:12:48;;;;;;;;;;;;;;;22.51;59.67;99561.59;2077812;28;19915;-61
2021/07/03 00:13:49;;;;;;;;;;;;;;;22.51;59.72;99567.94;2078200;28;19909;-60
2021/07/03 00:14:50;;;;;;;;;;;;;;;22.51;59.81;99561.59;2080191;28;19919;-60
2021/07/03 00:15:50;;;;;;;;;;;;;;;22.51;59.53;99567.09;2076944;28;20422;-61
2021/07/03 00:16:51;;;;;;;;;;;;;;;22.51;59.78;99567.94;2084451;28;19908;-60
2021/07/03 00:17:52;;;;;;;;;;;;;;;22.50;59.69;99566.25;2077266;28;19912;-61
2021/07/03 00:18:52;;;;;;;;;;;;;;;22.50;59.65;99566.25;2078487;28;19909;-60
2021/07/03 00:19:52;;;;;;;;;;;;;;;22.51;59.53;99570.69;2078994;28;20807;-60
2021/07/03 00:20:53;;;;;;;;;;;;;;;22.51;59.76;99567.94;2077560;28;19909;-60
2021/07/03 00:21:53;;;;;;;;;;;;;;;22.50;59.57;99566.25;2079334;28;20006;-60
2021/07/03 00:22:54;;;;;;;;;;;;;;;22.50;59.82;99566.25;2077923;28;20357;-60
2021/07/03 00:23:54;;;;;;;;;;;;;;;22.51;59.81;99564.34;2081591;28;20541;-61
2021/07/03 00:24:55;;;;;;;;;;;;;;;22.51;59.80;99561.59;2070005;28;19928;-60
2021/07/03 00:25:55;;;;;;;;;;;;;;;22.51;59.70;99556.97;2069274;28;19940;-60
2021/07/03 00:26:55;;;;;;;;;;;;;;;22.50;59.78;99559.91;2078883;28;19999;-60
2021/07/03 00:27:56;;;;;;;;;;;;;;;22.50;59.90;99560.75;2076626;28;20400;-60
2021/07/03 00:28:56;;;;;;;;;;;;;;;22.50;59.75;99558.00;2077822;28;19943;-60
2021/07/03 00:29:56;;;;;;;;;;;;;;;22.50;59.88;99560.75;2077527;28;19909;-60
2021/07/03 00:30:57;;;;;;;;;;;;;;;22.51;59.80;99553.38;2070518;28;19916;-60
2021/07/03 00:31:57;;;;;;;;;;;;;;;22.52;59.70;99552.34;2069094;28;19909;-60
2021/07/03 00:32:58;;;;;;;;;;;;;;;22.50;59.73;99549.78;2079482;28;19920;-60
2021/07/03 00:33:58;;;;;;;;;;;;;;;22.51;59.89;99551.47;2079255;28;19939;-60
2021/07/03 00:34:58;;;;;;;;;;;;;;;22.51;59.81;99551.47;2072963;28;19905;-61
2021/07/03 00:35:59;;;;;;;;;;;;;;;22.52;59.71;99560.59;2078804;28;19924;-60
2021/07/03 00:37:00;;;;;;;;;;;;;;;22.51;59.86;99556.97;2076395;28;20384;-60
2021/07/03 00:38:00;;;;;;;;;;;;;;;22.51;59.74;99556.97;2078443;28;19909;-60
2021/07/03 00:39:01;;;;;;;;;;;;;;;22.51;59.60;99556.97;2078120;28;19909;-60
2021/07/03 00:40:02;;;;;;;;;;;;;;;22.51;59.66;99551.47;2076587;28;20605;-60
2021/07/03 00:41:02;;;;;;;;;;;;;;;22.52;59.67;99550.44;2085126;28;19924;-60
2021/07/03 00:42:03;;;;;;;;;;;;;;;22.51;59.65;99551.47;2077530;28;19917;-60
2021/07/03 00:43:03;;;;;;;;;;;;;;;22.51;59.85;99551.47;2072814;28;19920;-60
2021/07/03 00:44:04;;;;;;;;;;;;;;;22.51;59.78;99548.72;2079748;28;20432;-60
2021/07/03 00:45:05;;;;;;;;;;;;;;;22.51;59.74;99545.97;2078077;28;20052;-60
2021/07/03 00:46:05;;;;;;;;;;;;;;;22.51;59.73;99540.47;2078453;28;19946;-60
2021/07/03 00:47:06;;;;;;;;;;;;;;;22.51;59.57;99539.63;2079104;28;19909;-60
2021/07/03 00:48:06;;;;;;;;;;;;;;;22.51;59.73;99540.47;2086585;28;20532;-60
2021/07/03 00:49:07;;;;;;;;;;;;;;;22.51;59.81;99540.47;2081917;28;19927;-61
2021/07/03 00:50:11;;;;;;;;;;;;;;;22.52;59.77;99542.22;2084230;28;20276;-60
2021/07/03 00:51:11;;;;;;;;;;;;;;;22.52;59.94;99539.47;2079245;28;20647;-60
2021/07/03 00:52:11;;;;;;;;;;;;;;;22.51;59.64;99535.00;2078307;28;19908;-60
2021/07/03 00:53:14;;;;;;;;;;;;;;;22.51;59.69;99545.97;2078699;28;19908;-60
2021/07/03 00:54:16;;;;;;;;;;;;;;;22.51;59.92;99542.38;2079004;28;19913;-60
2021/07/03 00:55:16;;;;;;;;;;;;;;;22.51;59.81;99536.88;2078292;28;19931;-60
2021/07/03 00:56:17;;;;;;;;;;;;;;;22.51;59.96;99535.00;2080518;28;19909;-60
2021/07/03 00:57:17;;;;;;;;;;;;;;;22.51;59.63;99540.47;2077780;28;19907;-60
2021/07/03 00:58:17;;;;;;;;;;;;;;;22.51;59.79;99540.47;2078495;28;19948;-60
2021/07/03 00:59:18;;;;;;;;;;;;;;;22.51;59.79;99537.75;2078849;28;19911;-60
2021/07/03 01:00:19;;;;;;;;;;;;;;;22.51;59.68;99540.47;2078113;28;20261;-60
2021/07/03 01:01:19;;;;;;;;;;;;;;;22.51;60.00;99540.47;2079573;28;19967;-60
2021/07/03 01:02:19;;;;;;;;;;;;;;;22.51;59.82;99540.47;2078638;28;19922;-60
2021/07/03 01:03:20;;;;;;;;;;;;;;;22.50;60.01;99538.78;2078283;28;19916;-61
2021/07/03 01:04:20;;;;;;;;;;;;;;;22.51;59.89;99551.47;2081031;28;19912;-61
2021/07/03 01:05:20;;;;;;;;;;;;;;;22.51;59.82;99540.47;2083350;28;19923;-60
2021/07/03 01:06:23;;;;;;;;;;;;;;;22.51;59.82;99543.22;2078775;28;19909;-60
2021/07/03 01:07:24;;;;;;;;;;;;;;;22.51;59.97;99534.16;2078481;28;20561;-61
2021/07/03 01:08:24;;;;;;;;;;;;;;;22.51;59.95;99540.47;2078301;28;20364;-60
2021/07/03 01:09:25;;;;;;;;;;;;;;;22.52;59.81;99538.63;2078044;28;20007;-61
2021/07/03 01:10:27;;;;;;;;;;;;;;;22.51;59.81;99534.16;2078102;28;19912;-60
2021/07/03 01:11:28;;;;;;;;;;;;;;;22.52;60.11;99535.88;2078633;28;19912;-60
2021/07/03 01:12:28;;;;;;;;;;;;;;;22.52;60.07;99542.22;2077896;28;20401;-60
2021/07/03 01:13:29;;;;;;;;;;;;;;;22.52;59.90;99535.88;2077150;28;20383;-60
2021/07/03 01:14:30;;;;;;;;;;;;;;;22.52;59.80;99535.88;2077976;28;20352;-60
2021/07/03 01:15:30;;;;;;;;;;;;;;;22.51;59.87;99535.00;2081882;28;20362;-60
2021/07/03 01:16:30;;;;;;;;;;;;;;;22.51;59.96;99539.63;2079035;28;20413;-60
2021/07/03 01:17:31;;;;;;;;;;;;;;;22.51;60.14;99534.16;2075893;28;19916;-61
2021/07/03 01:18:31;;;;;;;;;;;;;;;22.52;60.12;99535.88;2071476;28;19913;-60
2021/07/03 01:19:31;;;;;;;;;;;;;;;22.51;60.08;99540.47;2078254;28;20257;-60
2021/07/03 01:20:32;;;;;;;;;;;;;;;22.52;60.11;99536.72;2077225;28;19959;-60
2021/07/03 01:21:33;;;;;;;;;;;;;;;22.51;59.89;99539.63;2077731;28;19920;-60
2021/07/03 01:22:33;;;;;;;;;;;;;;;22.52;59.95;99541.34;2077745;28;19913;-60
2021/07/03 01:23:33;;;;;;;;;;;;;;;22.52;59.84;99544.97;2078788;28;19913;-61
2021/07/03 01:24:35;;;;;;;;;;;;;;;22.52;59.81;99542.22;2078615;28;20023;-60
2021/07/03 01:25:35;;;;;;;;;;;;;;;22.50;59.94;99552.53;2077996;28;19944;-60
2021/07/03 01:26:41;;;;;;;;;;;;;;;22.51;60.10;99551.47;2078966;28;19946;-60
2021/07/03 01:27:42;;;;;;;;;;;;;;;22.52;60.17;99552.34;2074184;28;19958;-60
2021/07/03 01:28:42;;;;;;;;;;;;;;;22.52;60.09;99549.59;2077966;28;19919;-61
2021/07/03 01:29:43;;;;;;;;;;;;;;;22.51;59.98;99551.47;2076350;28;20007;-60
2021/07/03 01:30:43;;;;;;;;;;;;;;;22.51;60.08;99551.47;2075568;28;19913;-60
2021/07/03 01:31:45;;;;;;;;;;;;;;;22.51;59.87;99548.72;2078845;28;19912;-60
2021/07/03 01:32:45;;;;;;;;;;;;;;;22.52;60.13;99546.84;2074198;28;20394;-61
2021/07/03 01:33:45;;;;;;;;;;;;;;;22.51;60.04;99554.22;2078802;28;19959;-61
2021/07/03 01:34:46;;;;;;;;;;;;;;;22.51;59.97;99556.97;2075517;28;19913;-60
2021/07/03 01:35:46;;;;;;;;;;;;;;;22.52;60.05;99552.34;2076221;28;19917;-60
2021/07/03 01:36:47;;;;;;;;;;;;;;;22.50;60.17;99544.28;2078270;28;19928;-61
2021/07/03 01:37:47;;;;;;;;;;;;;;;22.52;60.10;99552.34;2075315;28;19963;-61
2021/07/03 01:38:47;;;;;;;;;;;;;;;22.52;60.16;99553.19;2078135;28;19913;-61
2021/07/03 01:39:49;;;;;;;;;;;;;;;22.51;59.87;99556.13;2074226;28;20368;-60
2021/07/03 01:40:49;;;;;;;;;;;;;;;22.51;59.94;99548.72;2077900;28;19913;-60
2021/07/03 01:41:50;;;;;;;;;;;;;;;22.51;60.00;99545.13;2078293;28;19912;-60
2021/07/03 01:42:50;;;;;;;;;;;;;;;22.50;60.13;99538.78;2077102;28;19919;-60
2021/07/03 01:43:51;;;;;;;;;;;;;;;22.51;59.93;99543.22;2072118;28;20295;-61
2021/07/03 01:44:52;;;;;;;;;;;;;;;22.51;60.04;99540.47;2077747;28;19911;-60
2021/07/03 01:45:52;;;;;;;;;;;;;;;22.50;60.01;99536.03;2078637;28;19912;-60
2021/07/03 01:46:57;;;;;;;;;;;;;;;22.51;60.09;99536.88;2075404;28;20634;-60
2021/07/03 01:47:57;;;;;;;;;;;;;;;22.51;60.11;99540.47;2082070;28;19917;-60
2021/07/03 01:49:01;;;;;;;;;;;;;;;22.51;60.02;99539.63;2078397;28;19916;-60
2021/07/03 01:50:02;;;;;;;;;;;;;;;22.50;60.06;99541.53;2076484;28;19996;-60
2021/07/03 01:51:02;;;;;;;;;;;;;;;22.51;60.14;99542.38;2078569;28;19909;-60
2021/07/03 01:52:03;;;;;;;;;;;;;;;22.51;60.21;99548.72;2078596;28;19973;-60
2021/07/03 01:53:03;;;;;;;;;;;;;;;22.51;60.14;99551.47;2077248;28;20008;-60
2021/07/03 01:54:03;;;;;;;;;;;;;;;22.51;60.16;99545.13;2076520;28;19939;-61
2021/07/03 01:55:05;;;;;;;;;;;;;;;22.51;60.09;99545.97;2075570;28;20364;-60
2021/07/03 01:56:09;;;;;;;;;;;;;;;22.51;60.04;99556.97;2079019;28;19920;-60
2021/07/03 01:57:09;;;;;;;;;;;;;;;22.51;60.03;99551.47;2069002;28;20419;-61
2021/07/03 01:58:14;;;;;;;;;;;;;;;22.51;60.08;99551.47;2069467;28;20023;-60
2021/07/03 01:59:14;;;;;;;;;;;;;;;22.52;60.01;99553.19;2077776;28;19923;-60
2021/07/03 02:00:15;;;;;;;;;;;;;;;22.51;59.89;99554.22;2077588;28;19921;-60
2021/07/03 02:01:15;;;;;;;;;;;;;;;22.51;60.09;99548.72;2078787;28;20211;-60
2021/07/03 02:02:16;;;;;;;;;;;;;;;22.51;60.04;99556.97;2078205;28;19912;-60
2021/07/03 02:03:16;;;;;;;;;;;;;;;22.51;59.97;99554.22;2077463;28;20197;-60
2021/07/03 02:04:16;;;;;;;;;;;;;;;22.51;60.06;99562.44;2077884;28;19935;-60
2021/07/03 02:05:17;;;;;;;;;;;;;;;22.51;60.08;99551.47;2077821;28;20295;-60
2021/07/03 02:06:17;;;;;;;;;;;;;;;22.52;59.93;99560.59;2079184;28;20375;-60
2021/07/03 02:07:18;;;;;;;;;;;;;;;22.52;59.93;99550.44;2077860;28;19951;-60
2021/07/03 02:08:18;;;;;;;;;;;;;;;22.52;60.02;99555.09;2077959;28;19912;-60
2021/07/03 02:09:19;;;;;;;;;;;;;;;22.51;60.03;99556.97;2076730;28;19913;-60
2021/07/03 02:10:20;;;;;;;;;;;;;;;22.51;60.14;99550.63;2073412;28;19916;-60
2021/07/03 02:11:20;;;;;;;;;;;;;;;22.51;60.25;99554.22;2076298;28;19913;-60
2021/07/03 02:12:20;;;;;;;;;;;;;;;22.51;60.24;99554.22;2077140;28;19916;-60
2021/07/03 02:13:21;;;;;;;;;;;;;;;22.52;60.07;99555.94;2073654;28;19999;-60
2021/07/03 02:14:21;;;;;;;;;;;;;;;22.52;60.18;99557.84;2077219;28;19920;-60
2021/07/03 02:15:22;;;;;;;;;;;;;;;22.52;59.93;99558.69;2075786;28;20386;-60
2021/07/03 02:16:22;;;;;;;;;;;;;;;22.52;60.25;99566.94;2075156;28;19915;-60
2021/07/03 02:17:22;;;;;;;;;;;;;;;22.52;60.10;99558.69;2078445;28;20347;-60
2021/07/03 02:18:23;;;;;;;;;;;;;;;22.52;60.23;99566.94;2083234;28;20345;-60
2021/07/03 02:19:23;;;;;;;;;;;;;;;22.52;59.94;99561.44;2080453;28;19997;-60
2021/07/03 02:20:24;;;;;;;;;;;;;;;22.51;60.16;99551.47;2076638;28;19908;-60
2021/07/03 02:21:25;;;;;;;;;;;;;;;22.52;60.11;99553.19;2075487;28;19923;-60
2021/07/03 02:22:25;;;;;;;;;;;;;;;22.52;60.17;99553.19;2076667;28;19959;-60
2021/07/03 02:23:25;;;;;;;;;;;;;;;22.51;60.17;99556.97;2068768;28;20428;-60
2021/07/03 02:24:26;;;;;;;;;;;;;;;22.51;60.04;99554.22;2072457;28;19921;-60
2021/07/03 02:25:26;;;;;;;;;;;;;;;22.51;60.06;99548.72;2072766;28;19905;-60
2021/07/03 02:26:27;;;;;;;;;;;;;;;22.52;60.02;99549.59;2064606;28;19939;-60
2021/07/03 02:27:27;;;;;;;;;;;;;;;22.51;60.08;99551.47;2066051;28;19992;-60
2021/07/03 02:28:27;;;;;;;;;;;;;;;22.51;59.97;99556.97;2078449;28;20810;-61
2021/07/03 02:29:28;;;;;;;;;;;;;;;22.52;60.16;99547.69;2076631;28;19943;-60
2021/07/03 02:30:30;;;;;;;;;;;;;;;22.52;60.15;99547.69;2082755;28;20746;-60
2021/07/03 02:31:30;;;;;;;;;;;;;;;22.51;60.08;99548.72;2084066;28;19921;-60
2021/07/03 02:32:30;;;;;;;;;;;;;;;22.52;60.20;99547.69;2078303;28;20302;-60
2021/07/03 02:33:31;;;;;;;;;;;;;;;22.51;60.10;99543.22;2069212;28;20437;-60
2021/07/03 02:34:31;;;;;;;;;;;;;;;22.51;60.10;99551.47;2070041;28;19948;-60
2021/07/03 02:35:32;;;;;;;;;;;;;;;22.52;60.07;99550.44;2063735;28;20663;-61
2021/07/03 02:36:32;;;;;;;;;;;;;;;22.52;60.07;99547.69;2066915;28;19917;-60
2021/07/03 02:37:33;;;;;;;;;;;;;;;22.52;60.35;99546.84;2077625;28;19908;-60
2021/07/03 02:38:33;;;;;;;;;;;;;;;22.52;60.17;99544.97;2071545;28;19916;-60
2021/07/03 02:39:33;;;;;;;;;;;;;;;22.52;60.32;99547.69;2066652;28;19913;-60
2021/07/03 02:40:34;;;;;;;;;;;;;;;22.52;60.10;99541.34;2069343;28;19959;-60
2021/07/03 02:41:34;;;;;;;;;;;;;;;22.51;60.22;99545.97;2078289;28;19927;-61
2021/07/03 02:42:34;;;;;;;;;;;;;;;22.52;60.33;99535.88;2078523;28;20494;-60
2021/07/03 02:45:14;;;;;;;;;;;;;;;22.51;60.40;99545.97;2071788;28;20459;-60
2021/07/03 02:46:14;;;;;;;;;;;;;;;22.52;60.23;99536.72;2076576;28;19913;-61
2021/07/03 02:47:15;;;;;;;;;;;;;;;22.52;60.21;99541.34;2078987;28;19915;-60
2021/07/03 02:48:15;;;;;;;;;;;;;;;22.51;60.36;99536.88;2075054;28;19908;-60
2021/07/03 02:49:16;;;;;;;;;;;;;;;22.52;60.26;99531.22;2079206;28;20685;-60
2021/07/03 02:50:17;;;;;;;;;;;;;;;22.51;60.29;99532.25;2076955;28;19909;-60
2021/07/03 02:51:17;;;;;;;;;;;;;;;22.51;60.35;99529.50;2078111;28;20353;-60
2021/07/03 02:52:17;;;;;;;;;;;;;;;22.51;60.25;99526.75;2078712;28;19909;-61
2021/07/03 02:53:18;;;;;;;;;;;;;;;22.51;60.28;99515.75;2079429;28;19908;-60
2021/07/03 02:54:18;;;;;;;;;;;;;;;22.51;60.38;99523.16;2069052;28;19920;-60
2021/07/03 02:55:18;;;;;;;;;;;;;;;22.50;60.19;99516.81;2064188;28;20012;-60
2021/07/03 02:56:19;;;;;;;;;;;;;;;22.51;60.43;99513.03;2073902;28;19916;-60
2021/07/03 02:57:19;;;;;;;;;;;;;;;22.51;60.40;99513.03;2078001;28;19975;-60
2021/07/03 02:58:19;;;;;;;;;;;;;;;22.51;60.19;99518.50;2077429;28;20386;-60
2021/07/03 02:59:19;;;;;;;;;;;;;;;22.51;60.35;99518.50;2079998;28;20359;-60
2021/07/03 03:00:20;;;;;;;;;;;;;;;22.51;60.32;99515.75;2079457;28;19913;-61
2021/07/03 03:01:20;;;;;;;;;;;;;;;22.51;60.29;99518.50;2077301;28;20581;-60
2021/07/03 03:02:21;;;;;;;;;;;;;;;22.51;60.21;99518.50;2070492;28;20402;-60
2021/07/03 03:03:21;;;;;;;;;;;;;;;22.51;60.45;99518.50;2076074;28;19948;-60
2021/07/03 03:04:22;;;;;;;;;;;;;;;22.51;60.35;99518.50;2078278;28;19917;-60
2021/07/03 03:05:22;;;;;;;;;;;;;;;22.51;60.22;99515.75;2077066;28;20616;-60
2021/07/03 03:06:23;;;;;;;;;;;;;;;22.52;60.12;99520.22;2077669;28;19912;-60
2021/07/03 03:07:23;;;;;;;;;;;;;;;22.51;60.19;99524.00;2077522;28;20367;-60
2021/07/03 03:08:23;;;;;;;;;;;;;;;22.52;60.44;99531.22;2077268;28;19909;-61
2021/07/03 03:09:26;;;;;;;;;;;;;;;22.51;60.29;99521.25;2069547;28;19901;-60
2021/07/03 03:10:26;;;;;;;;;;;;;;;22.51;60.29;99523.16;2066625;28;19913;-60
2021/07/03 03:11:26;;;;;;;;;;;;;;;22.51;60.25;99520.41;2077880;28;19920;-60
2021/07/03 03:12:27;;;;;;;;;;;;;;;22.51;60.46;99529.50;2077765;28;20753;-60
2021/07/03 03:13:27;;;;;;;;;;;;;;;22.51;60.34;99528.66;2076775;28;19928;-60
2021/07/03 03:14:27;;;;;;;;;;;;;;;22.52;60.38;99524.88;2078289;28;19944;-60
2021/07/03 03:15:27;;;;;;;;;;;;;;;22.52;60.52;99527.63;2075387;28;19909;-60
2021/07/03 03:16:29;;;;;;;;;;;;;;;22.51;60.38;99520.41;2079266;28;19920;-61
2021/07/03 03:17:29;;;;;;;;;;;;;;;22.50;60.40;99527.81;2078147;28;19935;-60
2021/07/03 03:18:29;;;;;;;;;;;;;;;22.51;60.58;99529.50;2076651;28;19913;-60
2021/07/03 03:19:30;;;;;;;;;;;;;;;22.51;60.52;99524.00;2074239;28;19916;-60
2021/07/03 03:20:30;;;;;;;;;;;;;;;22.52;60.42;99519.38;2078930;28;19912;-61
2021/07/03 03:21:31;;;;;;;;;;;;;;;22.51;60.27;99520.41;2075922;28;19924;-60
2021/07/03 03:22:31;;;;;;;;;;;;;;;22.51;60.38;99518.50;2082336;28;19916;-60
2021/07/03 03:23:31;;;;;;;;;;;;;;;22.51;60.22;99520.41;2081777;28;19955;-60
2021/07/03 03:24:32;;;;;;;;;;;;;;;22.50;60.34;99514.06;2075220;28;20523;-60
2021/07/03 03:27:10;;;;;;;;;;;;;;;22.52;60.51;99519.38;2079224;28;19917;-60
2021/07/03 03:28:10;;;;;;;;;;;;;;;22.50;60.52;99511.31;2079785;28;19912;-60
2021/07/03 03:29:13;;;;;;;;;;;;;;;22.51;60.44;99518.50;2079357;28;19920;-60
2021/07/03 03:30:14;;;;;;;;;;;;;;;22.51;60.48;99517.66;2076434;28;19919;-60
2021/07/03 03:31:14;;;;;;;;;;;;;;;22.51;60.49;99507.53;2076573;28;19905;-60
2021/07/03 03:32:15;;;;;;;;;;;;;;;22.51;60.48;99503.94;2078705;28;19908;-60
2021/07/03 03:33:15;;;;;;;;;;;;;;;22.52;60.44;99508.41;2078741;28;20308;-60
2021/07/03 03:34:15;;;;;;;;;;;;;;;22.51;60.45;99507.53;2079346;28;20674;-60
2021/07/03 03:35:16;;;;;;;;;;;;;;;22.51;60.56;99510.28;2072800;28;20737;-60
2021/07/03 03:36:16;;;;;;;;;;;;;;;22.51;60.37;99503.94;2074450;28;19913;-60
2021/07/03 03:37:16;;;;;;;;;;;;;;;22.50;60.58;99499.50;2077597;28;19931;-60
2021/07/03 03:38:16;;;;;;;;;;;;;;;22.50;60.54;99505.84;2073258;28;20433;-61
2021/07/03 03:39:17;;;;;;;;;;;;;;;22.50;60.52;99494.84;2077675;28;19948;-60
2021/07/03 03:40:17;;;;;;;;;;;;;;;22.50;60.58;99489.34;2080348;28;19928;-60
2021/07/03 03:41:20;;;;;;;;;;;;;;;22.50;60.49;99486.59;2078977;28;20030;-60
2021/07/03 03:42:20;;;;;;;;;;;;;;;22.51;60.42;99485.56;2079381;28;20414;-60
2021/07/03 03:43:21;;;;;;;;;;;;;;;22.50;60.49;99483.00;2063740;28;20344;-60
2021/07/03 03:44:21;;;;;;;;;;;;;;;22.51;60.34;99484.72;2071790;28;20390;-60
2021/07/03 03:45:22;;;;;;;;;;;;;;;22.51;60.37;99490.19;2079904;28;19970;-60
2021/07/03 03:46:23;;;;;;;;;;;;;;;22.51;60.56;99487.44;2074349;28;19913;-60
2021/07/03 03:47:24;;;;;;;;;;;;;;;22.51;60.54;99484.72;2071764;28;20304;-60
2021/07/03 03:48:24;;;;;;;;;;;;;;;22.50;60.59;99489.34;2077623;28;19943;-60
2021/07/03 03:49:24;;;;;;;;;;;;;;;22.50;60.33;99489.34;2079317;28;19958;-60
2021/07/03 03:50:24;;;;;;;;;;;;;;;22.51;60.44;99484.72;2079144;28;20813;-60
2021/07/03 03:51:37;;;;;;;;;;;;;;;22.51;60.52;99491.03;2078304;28;19909;-60
2021/07/03 03:52:38;;;;;;;;;;;;;;;22.51;60.32;99491.03;2077538;28;20384;-60
2021/07/03 03:53:39;;;;;;;;;;;;;;;22.50;60.49;99489.34;2079401;28;19913;-60
2021/07/03 03:54:39;;;;;;;;;;;;;;;22.50;60.80;99494.84;2079986;28;19920;-60
2021/07/03 03:55:39;;;;;;;;;;;;;;;22.51;60.48;99491.03;2079569;28;19942;-60
2021/07/03 03:56:40;;;;;;;;;;;;;;;22.51;60.35;99485.56;2078407;28;20414;-60
2021/07/03 03:57:40;;;;;;;;;;;;;;;22.51;60.48;99490.19;2079489;28;19901;-60
2021/07/03 03:58:40;;;;;;;;;;;;;;;22.51;60.48;99490.19;2079030;28;19919;-61
2021/07/03 03:59:41;;;;;;;;;;;;;;;22.50;60.58;99489.34;2078155;28;19912;-60
2021/07/03 04:00:41;;;;;;;;;;;;;;;22.51;60.37;99496.53;2079679;28;19913;-60
2021/07/03 04:01:43;;;;;;;;;;;;;;;22.51;60.45;99491.03;2079898;28;19966;-60
2021/07/03 04:02:43;;;;;;;;;;;;;;;22.51;60.25;99491.03;2088406;28;19913;-60
2021/07/03 04:03:44;;;;;;;;;;;;;;;22.50;60.42;99492.09;2084127;28;19965;-60
2021/07/03 04:04:44;;;;;;;;;;;;;;;22.51;60.46;99495.69;2084472;28;20102;-60
2021/07/03 04:05:44;;;;;;;;;;;;;;;22.51;60.51;99481.97;2078988;28;19919;-60
2021/07/03 04:06:45;;;;;;;;;;;;;;;22.51;60.37;99485.56;2079566;28;19908;-60
2021/07/03 04:07:45;;;;;;;;;;;;;;;22.52;60.46;99492.78;2080031;28;19963;-60
2021/07/03 04:08:45;;;;;;;;;;;;;;;22.51;60.16;99495.69;2078740;28;19944;-60
2021/07/03 04:09:46;;;;;;;;;;;;;;;22.50;60.45;99489.34;2078790;28;19905;-60
2021/07/03 04:10:46;;;;;;;;;;;;;;;22.51;60.45;99485.56;2078622;28;19912;-60
2021/07/03 04:11:47;;;;;;;;;;;;;;;22.51;60.48;99487.44;2078575;28;19924;-60
2021/07/03 04:12:47;;;;;;;;;;;;;;;22.51;60.36;99484.72;2079967;28;19958;-60
2021/07/03 04:14:09;;;;;;;;;;;;;;;22.51;60.53;99490.19;2078603;28;20358;-60
2021/07/03 04:15:10;;;;;;;;;;;;;;;22.51;60.35;99485.56;2077482;28;19932;-60
2021/07/03 04:16:10;;;;;;;;;;;;;;;22.51;60.41;99493.78;2081023;28;19904;-60
2021/07/03 04:17:10;;;;;;;;;;;;;;;22.51;60.45;99495.69;2080348;28;20526;-60
2021/07/03 04:18:11;;;;;;;;;;;;;;;22.52;60.55;99498.25;2079955;28;20004;-60
2021/07/03 04:19:11;;;;;;;;;;;;;;;22.51;60.36;99491.03;2078700;28;19909;-60
2021/07/03 04:20:11;;;;;;;;;;;;;;;22.51;60.51;99496.53;2083254;28;19912;-60
2021/07/03 04:21:12;;;;;;;;;;;;;;;22.51;60.58;99495.69;2078420;28;19947;-60
2021/07/03 04:22:12;;;;;;;;;;;;;;;22.52;60.35;99498.25;2077326;28;19913;-60
2021/07/03 04:23:12;;;;;;;;;;;;;;;22.52;60.29;99500.16;2079189;28;19964;-60
2021/07/03 04:24:13;;;;;;;;;;;;;;;22.52;60.37;99500.16;2079204;28;19908;-60
2021/07/03 04:25:15;;;;;;;;;;;;;;;22.51;60.56;99495.69;2079007;28;19975;-60
2021/07/03 04:26:15;;;;;;;;;;;;;;;22.52;60.39;99506.50;2078311;28;19991;-60
2021/07/03 04:27:16;;;;;;;;;;;;;;;22.51;60.54;99513.03;2077924;28;19913;-60
2021/07/03 04:28:16;;;;;;;;;;;;;;;22.51;60.44;99504.78;2078194;28;19918;-60
2021/07/03 04:29:22;;;;;;;;;;;;;;;22.51;60.38;99502.03;2080925;28;19962;-60
2021/07/03 04:30:53;;;;;;;;;;;;;;;22.52;60.43;99514.75;2084983;28;19962;-61
2021/07/03 04:31:53;;;;;;;;;;;;;;;22.52;60.43;99519.38;2076379;28;19912;-60
2021/07/03 04:32:54;;;;;;;;;;;;;;;22.52;60.42;99525.72;2078607;28;19905;-60
2021/07/03 04:33:54;;;;;;;;;;;;;;;22.52;60.59;99531.22;2079401;28;20295;-60
2021/07/03 04:34:54;;;;;;;;;;;;;;;22.52;60.46;99527.63;2078757;28;19918;-60
2021/07/03 04:35:55;;;;;;;;;;;;;;;22.51;60.63;99529.50;2078956;28;19920;-60
2021/07/03 04:36:56;;;;;;;;;;;;;;;22.51;60.66;99528.66;2078712;28;19979;-60
2021/07/03 04:37:56;;;;;;;;;;;;;;;22.51;60.56;99532.25;2077877;28;20293;-61
2021/07/03 04:38:56;;;;;;;;;;;;;;;22.51;60.42;99529.50;2079052;28;19931;-60
2021/07/03 04:39:57;;;;;;;;;;;;;;;22.52;60.58;99530.38;2078262;28;20185;-60
2021/07/03 04:40:57;;;;;;;;;;;;;;;22.52;60.47;99531.22;2076558;28;19978;-60
2021/07/03 04:41:57;;;;;;;;;;;;;;;22.51;60.43;99529.50;2071781;28;19909;-60
2021/07/03 04:42:58;;;;;;;;;;;;;;;22.51;60.60;99531.41;2075833;28;19912;-60
2021/07/03 04:43:58;;;;;;;;;;;;;;;22.51;60.44;99532.25;2080788;28;19919;-60
2021/07/03 04:44:58;;;;;;;;;;;;;;;22.51;60.51;99537.75;2078144;28;21116;-60
2021/07/03 04:45:59;;;;;;;;;;;;;;;22.51;60.58;99540.47;2077363;28;19916;-60
2021/07/03 04:46:59;;;;;;;;;;;;;;;22.51;60.56;99539.63;2072869;28;19920;-60
2021/07/03 04:48:00;;;;;;;;;;;;;;;22.51;60.41;99540.47;2073961;28;19912;-60
2021/07/03 04:49:00;;;;;;;;;;;;;;;22.52;60.56;99547.69;2071095;28;20335;-61
2021/07/03 04:50:01;;;;;;;;;;;;;;;22.51;60.30;99542.38;2065362;28;19916;-61
2021/07/03 04:51:01;;;;;;;;;;;;;;;22.51;60.61;99548.72;2072291;28;20426;-61
2021/07/03 04:52:02;;;;;;;;;;;;;;;22.52;60.43;99546.84;2079134;28;19912;-60
2021/07/03 04:53:02;;;;;;;;;;;;;;;22.51;60.45;99554.22;2076641;28;19959;-61
2021/07/03 04:54:03;;;;;;;;;;;;;;;22.51;60.58;99554.22;2071478;28;19959;-60
2021/07/03 04:55:04;;;;;;;;;;;;;;;22.51;60.32;99559.72;2077521;28;19954;-60
2021/07/03 04:56:05;;;;;;;;;;;;;;;22.52;60.49;99563.34;2079238;28;19923;-60
2021/07/03 04:57:08;;;;;;;;;;;;;;;22.51;60.52;99562.44;2072523;28;20274;-60
2021/07/03 04:58:08;;;;;;;;;;;;;;;22.52;60.35;99557.84;2072345;28;19920;-60
2021/07/03 04:59:08;;;;;;;;;;;;;;;22.51;60.43;99556.97;2071685;28;19905;-60
2021/07/03 05:00:09;;;;;;;;;;;;;;;22.51;60.40;99559.72;2076662;28;19916;-60
2021/07/03 05:01:10;;;;;;;;;;;;;;;22.51;60.36;99561.59;2079245;28;19923;-61
2021/07/03 05:02:12;;;;;;;;;;;;;;;22.51;60.56;99564.34;2077517;28;20360;-60
2021/07/03 05:03:12;;;;;;;;;;;;;;;22.51;60.35;99562.44;2078965;28;19923;-61
2021/07/03 05:04:13;;;;;;;;;;;;;;;22.51;60.34;99562.44;2071755;28;19920;-60
2021/07/03 05:05:13;;;;;;;;;;;;;;;22.51;60.29;99562.44;2075261;28;19920;-60
2021/07/03 05:06:13;;;;;;;;;;;;;;;22.50;60.38;99569.00;2078613;28;19912;-60
2021/07/03 05:07:20;;;;;;;;;;;;;;;22.51;60.36;99567.94;2074396;28;19952;-61
2021/07/03 05:08:20;;;;;;;;;;;;;;;22.51;60.41;99573.44;2073446;28;19912;-60
2021/07/03 05:09:21;;;;;;;;;;;;;;;22.51;60.36;99572.59;2078728;28;20444;-60
2021/07/03 05:10:21;;;;;;;;;;;;;;;22.50;60.40;99580.00;2079055;28;19913;-60
2021/07/03 05:11:21;;;;;;;;;;;;;;;22.52;60.32;99579.81;2072573;28;19936;-61
2021/07/03 05:12:22;;;;;;;;;;;;;;;22.52;60.46;99574.31;2077885;28;19913;-61
2021/07/03 05:13:22;;;;;;;;;;;;;;;22.51;60.38;99578.94;2078571;28;19909;-60
2021/07/03 05:14:23;;;;;;;;;;;;;;;22.51;60.43;99581.69;2074201;28;20003;-60
2021/07/03 05:15:23;;;;;;;;;;;;;;;22.51;60.51;99587.16;2075065;28;19913;-60
2021/07/03 05:16:24;;;;;;;;;;;;;;;22.51;60.53;99592.66;2079042;28;19915;-60
2021/07/03 05:17:24;;;;;;;;;;;;;;;22.52;60.47;99586.16;2079362;28;20011;-60
2021/07/03 05:18:24;;;;;;;;;;;;;;;22.51;60.48;99589.91;2077495;28;19912;-60
2021/07/03 05:19:25;;;;;;;;;;;;;;;22.52;60.38;99594.38;2075337;28;19913;-60
2021/07/03 05:20:25;;;;;;;;;;;;;;;22.51;60.44;99589.91;2079110;28;20015;-61